TimeEST,TemperatureF,Dew PointF,Humidity,Sea Level PressureIn,VisibilityMPH,Wind Direction,Wind SpeedMPH,Gust SpeedMPH,PrecipitationIn,Events,Conditions,WindDirDegrees,DateUTC
12:54 AM,36.0,30.9,82,30.21,10.0,North,4.6,-,N/A,,Clear,360,2014-02-17 05:54:00
1:54 AM,39.0,28.9,67,30.22,10.0,North,6.9,-,N/A,,Clear,10,2014-02-17 06:54:00
2:54 AM,37.9,28.0,68,30.23,10.0,North,5.8,-,N/A,,Clear,10,2014-02-17 07:54:00
3:54 AM,37.0,27.0,67,30.25,10.0,North,4.6,-,N/A,,Clear,10,2014-02-17 08:54:00
4:54 AM,37.0,27.0,67,30.28,10.0,NNE,11.5,-,N/A,,Clear,30,2014-02-17 09:54:00
5:54 AM,35.1,28.0,76,30.31,10.0,NE,8.1,-,N/A,,Clear,50,2014-02-17 10:54:00
6:54 AM,34.0,26.1,73,30.33,10.0,NE,12.7,-,N/A,,Clear,50,2014-02-17 11:54:00
7:54 AM,35.1,25.0,67,30.37,10.0,NE,11.5,-,N/A,,Clear,40,2014-02-17 12:54:00
8:54 AM,37.0,26.1,65,30.39,10.0,NE,12.7,-,N/A,,Clear,50,2014-02-17 13:54:00
9:54 AM,39.9,24.1,53,30.41,10.0,NE,12.7,-,N/A,,Clear,50,2014-02-17 14:54:00
10:54 AM,42.1,23.0,47,30.41,10.0,NE,9.2,-,N/A,,Clear,50,2014-02-17 15:54:00
11:54 AM,43.0,25.0,49,30.40,10.0,NE,12.7,-,N/A,,Clear,40,2014-02-17 16:54:00
12:54 PM,44.1,23.0,43,30.37,10.0,NNE,9.2,-,N/A,,Clear,20,2014-02-17 17:54:00
1:54 PM,46.0,24.1,42,30.35,10.0,ENE,9.2,-,N/A,,Clear,60,2014-02-17 18:54:00
2:54 PM,46.9,24.1,41,30.34,10.0,Variable,4.6,-,N/A,,Clear,0,2014-02-17 19:54:00
3:54 PM,45.0,26.1,48,30.34,10.0,East,9.2,-,N/A,,Clear,100,2014-02-17 20:54:00
4:54 PM,41.0,27.0,57,30.35,10.0,ESE,9.2,-,N/A,,Clear,110,2014-02-17 21:54:00
5:54 PM,39.0,27.0,62,30.35,10.0,ESE,8.1,-,N/A,,Clear,110,2014-02-17 22:54:00
6:54 PM,37.0,28.0,70,30.36,10.0,East,6.9,-,N/A,,Partly Cloudy,90,2014-02-17 23:54:00
7:54 PM,37.0,28.0,70,30.34,10.0,East,5.8,-,N/A,,Mostly Cloudy,80,2014-02-18 00:54:00
8:54 PM,37.0,28.9,73,30.33,10.0,ENE,6.9,-,N/A,,Overcast,70,2014-02-18 01:54:00
9:44 PM,37.4,28.4,70,30.34,10.0,ENE,6.9,-,N/A,,Overcast,60,2014-02-18 02:44:00
9:54 PM,37.0,28.0,70,30.33,10.0,NE,6.9,-,N/A,,Overcast,50,2014-02-18 02:54:00
10:41 PM,35.6,28.4,75,30.31,10.0,ENE,5.8,-,N/A,,Mostly Cloudy,70,2014-02-18 03:41:00
10:54 PM,36.0,28.0,73,30.30,10.0,East,4.6,-,N/A,,Mostly Cloudy,80,2014-02-18 03:54:00
11:02 PM,35.6,28.4,75,30.29,10.0,East,4.6,-,N/A,,Mostly Cloudy,90,2014-02-18 04:02:00
11:27 PM,35.6,28.4,75,30.27,10.0,East,6.9,-,N/A,,Scattered Clouds,90,2014-02-18 04:27:00
11:54 PM,36.0,28.9,76,30.25,10.0,East,6.9,-,N/A,,Mostly Cloudy,90,2014-02-18 04:54:00